createdAt,value
2023-08-30T00:01:38.403Z,11.40
2023-08-30T00:04:05.992Z,10.25
2023-08-30T00:06:33.069Z,11.27
2023-08-30T00:08:59.939Z,10.50
2023-08-30T00:11:26.890Z,10.55
2023-08-30T00:13:53.815Z,11.90
2023-08-30T00:16:20.765Z,11.23
2023-08-30T00:18:47.700Z,10.77
2023-08-30T00:21:14.581Z,10.65
2023-08-30T00:23:42.731Z,10.60
2023-08-30T00:26:09.659Z,10.55
2023-08-30T00:28:36.463Z,10.88
2023-08-30T00:31:03.484Z,11.60
2023-08-30T00:33:30.375Z,10.85
2023-08-30T00:36:00.723Z,12.43
2023-08-30T00:38:29.420Z,11.13
2023-08-30T00:40:56.507Z,11.70
2023-08-30T00:43:23.383Z,10.45
2023-08-30T00:45:51.129Z,11.35
2023-08-30T00:48:21.399Z,11.93
2023-08-30T00:50:48.540Z,12.02
2023-08-30T00:53:15.898Z,11.68
2023-08-30T00:55:44.601Z,11.40
2023-08-30T00:58:12.278Z,11.73
2023-08-30T01:00:40.346Z,12.00
2023-08-30T01:03:11.249Z,12.20
2023-08-30T01:05:38.293Z,13.07
2023-08-30T01:08:05.877Z,11.70
2023-08-30T01:10:52.590Z,11.68
2023-08-30T01:13:21.645Z,12.27
2023-08-30T01:15:54.184Z,10.25
2023-08-30T01:18:26.286Z,11.82
2023-08-30T01:20:54.615Z,12.80
2023-08-30T01:23:38.206Z,12.45
2023-08-30T01:26:27.016Z,12.40
2023-08-30T01:28:57.880Z,12.38
2023-08-30T01:31:27.389Z,12.32
2023-08-30T01:33:54.532Z,13.00
2023-08-30T01:36:21.446Z,13.63
2023-08-30T01:38:48.415Z,11.95
2023-08-30T01:41:16.206Z,13.05
2023-08-30T01:43:43.994Z,12.57
2023-08-30T01:46:11.978Z,11.68
2023-08-30T01:48:40.045Z,11.90
2023-08-30T01:51:08.416Z,12.10
2023-08-30T01:53:36.955Z,10.77
2023-08-30T01:56:04.018Z,12.23
2023-08-30T01:58:30.895Z,13.02
2023-08-30T02:00:58.177Z,12.48
2023-08-30T02:03:25.248Z,12.20
2023-08-30T02:06:03.014Z,11.18
2023-08-30T02:08:55.916Z,12.85
2023-08-30T02:11:28.936Z,12.70
2023-08-30T02:16:29.683Z,12.95
2023-08-30T02:18:57.182Z,13.80
2023-08-30T02:21:24.384Z,13.05
2023-08-30T02:23:52.426Z,12.65
2023-08-30T02:26:22.748Z,13.35
2023-08-30T02:28:49.694Z,12.60
2023-08-30T02:31:16.599Z,12.88
2023-08-30T02:33:43.576Z,12.77
2023-08-30T02:36:11.790Z,13.45
2023-08-30T02:38:38.767Z,12.93
2023-08-30T02:41:05.730Z,14.02
2023-08-30T02:43:32.628Z,13.02
2023-08-30T02:45:59.883Z,13.75
2023-08-30T02:48:26.839Z,13.20
2023-08-30T02:50:53.670Z,13.75
2023-08-30T02:53:20.589Z,13.68
2023-08-30T02:55:49.034Z,13.93
2023-08-30T02:58:15.930Z,13.30
2023-08-30T03:00:42.784Z,13.45
2023-08-30T03:03:09.747Z,14.00
2023-08-30T03:05:36.652Z,12.93
2023-08-30T03:08:03.601Z,14.75
2023-08-30T03:10:30.594Z,14.15
2023-08-30T03:12:57.412Z,13.45
2023-08-30T03:15:24.582Z,12.90
2023-08-30T03:17:51.584Z,12.20
2023-08-30T03:20:18.625Z,13.05
2023-08-30T03:22:45.655Z,12.13
2023-08-30T03:25:12.599Z,12.98
2023-08-30T03:27:39.410Z,13.10
2023-08-30T03:30:07.631Z,13.30
2023-08-30T03:32:34.639Z,14.75
2023-08-30T03:35:01.617Z,12.65
2023-08-30T03:37:28.470Z,13.63
2023-08-30T03:39:55.376Z,13.65
2023-08-30T03:42:24.891Z,13.27
2023-08-30T03:44:52.132Z,13.57
2023-08-30T03:47:18.992Z,13.35
2023-08-30T03:49:45.931Z,12.55
2023-08-30T03:52:14.096Z,13.27
2023-08-30T03:54:41.016Z,13.73
2023-08-30T03:57:07.878Z,14.40
2023-08-30T03:59:34.776Z,13.65
2023-08-30T04:02:01.687Z,14.27
2023-08-30T04:04:28.598Z,13.13
2023-08-30T04:06:55.490Z,13.15
2023-08-30T04:09:22.408Z,13.98
2023-08-30T04:11:49.936Z,14.13
2023-08-30T04:14:22.388Z,13.73
2023-08-30T04:16:49.873Z,14.95
2023-08-30T04:19:16.796Z,15.27
2023-08-30T04:21:43.658Z,14.43
2023-08-30T04:24:10.606Z,12.70
2023-08-30T04:26:37.457Z,14.27
2023-08-30T04:29:04.536Z,12.80
2023-08-30T04:31:31.481Z,12.98
2023-08-30T04:33:58.390Z,13.05
2023-08-30T04:36:25.518Z,13.07
2023-08-30T04:39:01.615Z,14.30
2023-08-30T04:41:29.854Z,12.80
2023-08-30T04:43:56.782Z,13.15
2023-08-30T04:46:23.695Z,13.45
2023-08-30T04:48:50.648Z,13.57
2023-08-30T04:51:17.506Z,14.18
2023-08-30T04:53:44.579Z,13.63
2023-08-30T04:56:19.201Z,13.38
2023-08-30T04:58:46.251Z,13.13
2023-08-30T05:01:14.545Z,12.65
2023-08-30T05:03:41.933Z,13.95
2023-08-30T05:06:08.998Z,13.52
2023-08-30T05:08:35.827Z,13.35
2023-08-30T05:11:06.296Z,13.30
2023-08-30T05:13:33.758Z,13.00
2023-08-30T05:16:00.825Z,13.52
2023-08-30T05:18:27.689Z,12.98
2023-08-30T05:20:54.657Z,13.85
2023-08-30T05:23:21.627Z,13.15
2023-08-30T05:25:48.642Z,12.23
2023-08-30T05:28:15.639Z,12.80
2023-08-30T05:30:44.563Z,13.10
2023-08-30T05:33:11.442Z,12.90
2023-08-30T05:35:38.305Z,12.77
2023-08-30T05:38:05.211Z,12.60
2023-08-30T05:40:32.243Z,12.95
2023-08-30T05:42:59.110Z,13.32
2023-08-30T05:45:27.421Z,12.82
2023-08-30T05:47:54.345Z,12.98
2023-08-30T05:50:21.293Z,12.70
2023-08-30T05:52:48.164Z,12.52
2023-08-30T05:55:15.105Z,13.10
2023-08-30T05:57:42.031Z,13.02
2023-08-30T06:00:09.961Z,13.02
2023-08-30T06:02:39.799Z,13.20
2023-08-30T06:05:07.054Z,12.98
2023-08-30T06:07:34.105Z,11.63
2023-08-30T06:10:01.025Z,12.57
2023-08-30T06:12:28.082Z,11.93
2023-08-30T06:14:55.373Z,12.32
2023-08-30T06:17:22.729Z,11.95
2023-08-30T06:19:49.616Z,12.85
2023-08-30T06:22:16.787Z,12.88
2023-08-30T06:24:43.689Z,12.98
2023-08-30T06:27:13.848Z,12.55
2023-08-30T06:29:40.684Z,12.93
2023-08-30T06:32:07.722Z,12.75
2023-08-30T06:34:34.584Z,13.50
2023-08-30T06:37:01.492Z,14.32
2023-08-30T06:39:34.977Z,13.82
2023-08-30T06:42:02.268Z,13.45
2023-08-30T06:44:29.889Z,14.40
2023-08-30T06:46:59.570Z,12.32
2023-08-30T06:49:28.049Z,14.38
2023-08-30T06:51:54.884Z,14.45
2023-08-30T06:54:21.858Z,13.07
2023-08-30T06:56:59.668Z,14.25
2023-08-30T06:59:27.429Z,13.35
2023-08-30T07:01:56.992Z,13.98
2023-08-30T07:04:23.912Z,13.73
2023-08-30T07:06:51.274Z,14.27
2023-08-30T07:09:19.023Z,13.63
2023-08-30T07:11:49.339Z,14.07
2023-08-30T07:14:19.519Z,13.70
2023-08-30T07:16:46.329Z,13.10
2023-08-30T07:19:13.271Z,13.30
2023-08-30T07:21:40.141Z,12.48
2023-08-30T07:24:10.366Z,12.85
2023-08-30T07:26:37.896Z,13.18
2023-08-30T07:29:08.171Z,12.52
2023-08-30T07:31:35.037Z,12.88
2023-08-30T07:34:01.978Z,12.77
2023-08-30T07:36:44.937Z,12.07
2023-08-30T07:39:14.087Z,11.38
2023-08-30T07:44:13.475Z,11.70
2023-08-30T07:46:40.360Z,11.57
2023-08-30T07:49:07.215Z,11.13
2023-08-30T07:51:34.056Z,10.43
2023-08-30T07:54:01.114Z,11.05
2023-08-30T07:56:28.066Z,10.73
2023-08-30T07:58:56.018Z,12.90
2023-08-30T08:01:22.900Z,11.65
2023-08-30T08:04:04.239Z,11.55
2023-08-30T08:06:35.064Z,12.10
2023-08-30T08:09:03.052Z,12.25
2023-08-30T08:11:30.429Z,11.60
2023-08-30T08:13:57.408Z,11.93
2023-08-30T08:16:26.668Z,10.90
2023-08-30T08:18:55.280Z,11.88
2023-08-30T08:21:23.228Z,10.73
2023-08-30T08:23:50.962Z,9.73
2023-08-30T08:26:18.106Z,9.82
2023-08-30T08:28:45.545Z,9.77
2023-08-30T08:31:12.501Z,9.70
2023-08-30T08:33:39.555Z,11.05
2023-08-30T08:36:06.478Z,9.93
2023-08-30T08:38:35.010Z,9.23
2023-08-30T08:41:06.902Z,10.23
2023-08-30T08:43:36.586Z,9.82
2023-08-30T08:46:09.608Z,9.88
2023-08-30T08:48:42.011Z,9.68
2023-08-30T08:51:09.221Z,8.93
2023-08-30T08:53:37.338Z,10.23
2023-08-30T08:56:07.314Z,9.50
2023-08-30T08:58:34.419Z,10.32
2023-08-30T09:01:06.428Z,10.93
2023-08-30T09:03:36.033Z,11.43
2023-08-30T09:06:04.616Z,12.82
2023-08-30T09:08:34.149Z,11.07
2023-08-30T09:11:01.678Z,11.18
2023-08-30T09:13:28.669Z,11.13
2023-08-30T09:15:55.852Z,11.32
2023-08-30T09:18:28.750Z,10.95
2023-08-30T09:21:18.743Z,10.77
2023-08-30T09:23:46.033Z,11.15
2023-08-30T09:26:12.966Z,10.85
2023-08-30T09:28:45.937Z,10.35
2023-08-30T09:33:50.517Z,9.43
2023-08-30T09:36:17.597Z,9.15
2023-08-30T09:38:50.753Z,9.23
2023-08-30T09:41:18.077Z,9.18
2023-08-30T09:43:45.323Z,9.27
2023-08-30T09:46:12.947Z,9.13
2023-08-30T09:48:41.147Z,9.40
2023-08-30T09:51:10.351Z,9.15
2023-08-30T09:54:00.781Z,9.95
2023-08-30T09:56:36.946Z,10.82
2023-08-30T09:59:04.781Z,10.85
2023-08-30T10:01:32.203Z,10.25
2023-08-30T10:04:00.157Z,10.85
2023-08-30T10:06:29.318Z,11.45
2023-08-30T10:09:09.702Z,12.77
2023-08-30T10:11:37.724Z,12.10
2023-08-30T10:14:08.382Z,11.27
2023-08-30T10:16:45.471Z,11.52
2023-08-30T10:19:17.660Z,11.38
2023-08-30T10:22:03.468Z,11.32
2023-08-30T10:24:58.189Z,11.95
2023-08-30T10:27:34.986Z,11.18
2023-08-30T10:30:08.127Z,10.57
2023-08-30T10:35:20.229Z,10.10
2023-08-30T10:38:27.920Z,9.10
2023-08-30T10:41:08.222Z,9.30
2023-08-30T10:43:36.593Z,9.57
2023-08-30T10:46:13.613Z,9.43
2023-08-30T10:48:42.324Z,9.20
2023-08-30T10:51:35.550Z,9.30
2023-08-30T10:54:11.045Z,9.45
2023-08-30T10:56:52.504Z,10.18
2023-08-30T10:59:20.966Z,10.65
2023-08-30T11:01:49.336Z,11.88
2023-08-30T11:04:20.505Z,10.55
2023-08-30T11:06:51.754Z,11.13
2023-08-30T11:09:24.765Z,11.52
2023-08-30T11:11:52.807Z,10.30
2023-08-30T11:14:20.340Z,10.45
2023-08-30T11:16:47.440Z,10.88
2023-08-30T11:19:14.521Z,11.30
2023-08-30T11:21:45.259Z,10.55
2023-08-30T11:24:13.385Z,11.82
2023-08-30T11:26:40.405Z,12.43
2023-08-30T11:29:08.931Z,11.45
2023-08-30T11:31:39.648Z,12.85
2023-08-30T11:34:13.341Z,14.25
2023-08-30T11:36:51.469Z,13.40
2023-08-30T11:39:18.986Z,14.90
2023-08-30T11:41:48.748Z,15.60
2023-08-30T11:44:18.052Z,14.25
2023-08-30T11:46:45.086Z,15.90
2023-08-30T11:49:12.542Z,15.93
2023-08-30T11:51:39.471Z,16.52
2023-08-30T11:54:07.556Z,16.90
2023-08-30T11:56:36.667Z,18.27
2023-08-30T11:59:05.354Z,16.02
2023-08-30T12:01:33.837Z,18.25
2023-08-30T12:04:12.953Z,17.40
2023-08-30T12:06:43.162Z,17.63
2023-08-30T12:09:14.296Z,16.58
2023-08-30T12:11:45.560Z,17.77
2023-08-30T12:14:12.526Z,15.98
2023-08-30T12:16:41.639Z,16.75
2023-08-30T12:19:13.373Z,15.88
2023-08-30T12:21:48.371Z,15.70
2023-08-30T12:24:15.901Z,13.77
2023-08-30T12:26:46.144Z,12.40
2023-08-30T12:29:13.094Z,11.43
2023-08-30T12:31:40.001Z,11.35
2023-08-30T12:34:07.106Z,10.07
2023-08-30T12:36:34.073Z,11.80
2023-08-30T12:39:01.162Z,11.02
2023-08-30T12:41:28.375Z,11.25
2023-08-30T12:43:57.308Z,10.70
2023-08-30T12:46:26.612Z,10.15
2023-08-30T12:48:53.535Z,10.95
2023-08-30T12:51:20.503Z,10.13
2023-08-30T12:53:47.466Z,10.38
2023-08-30T12:56:17.340Z,10.40
2023-08-30T12:58:44.207Z,10.13
2023-08-30T13:01:11.183Z,8.82
2023-08-30T13:03:40.378Z,9.05
2023-08-30T13:06:07.455Z,8.50
2023-08-30T13:08:34.418Z,8.95
2023-08-30T13:11:01.676Z,8.60
2023-08-30T13:13:28.574Z,8.35
2023-08-30T13:15:58.226Z,7.97
2023-08-30T13:18:27.682Z,9.10
2023-08-30T13:20:58.852Z,9.25
2023-08-30T13:23:25.811Z,9.73
2023-08-30T13:25:52.748Z,8.68
2023-08-30T13:28:19.676Z,7.50
2023-08-30T13:30:47.474Z,6.80
2023-08-30T13:33:15.125Z,7.53
2023-08-30T13:35:42.716Z,7.07
2023-08-30T13:38:09.854Z,7.70
2023-08-30T13:40:36.725Z,6.85
2023-08-30T13:43:04.347Z,7.90
2023-08-30T13:45:31.344Z,7.22
2023-08-30T13:48:00.476Z,6.80
2023-08-30T13:50:31.373Z,8.35
2023-08-30T13:52:59.294Z,8.02
2023-08-30T13:55:26.323Z,9.50
2023-08-30T13:57:54.559Z,8.77
2023-08-30T14:00:23.092Z,9.40
2023-08-30T14:02:50.035Z,9.25
2023-08-30T14:05:17.249Z,9.77
2023-08-30T14:07:45.476Z,11.63
2023-08-30T14:12:48.190Z,11.85
2023-08-30T14:15:17.988Z,11.95
2023-08-30T14:17:45.205Z,11.82
2023-08-30T14:20:12.866Z,12.18
2023-08-30T14:22:40.542Z,12.20
2023-08-30T14:25:12.000Z,13.32
2023-08-30T14:27:40.334Z,13.93
2023-08-30T14:30:08.488Z,12.82
2023-08-30T14:32:35.515Z,10.13
2023-08-30T14:35:04.942Z,7.65
2023-08-30T14:37:31.904Z,8.65
2023-08-30T14:40:01.635Z,9.55
2023-08-30T14:42:28.552Z,7.90
2023-08-30T14:44:55.510Z,7.10
2023-08-30T14:47:22.649Z,6.88
2023-08-30T14:49:49.501Z,5.70
2023-08-30T14:52:17.205Z,5.55
2023-08-30T14:54:44.699Z,4.28
2023-08-30T14:57:11.833Z,3.00
2023-08-30T14:59:39.206Z,2.92
2023-08-30T15:02:06.175Z,2.15
2023-08-30T15:04:33.344Z,1.80
2023-08-30T15:07:02.734Z,1.30
2023-08-30T15:09:31.592Z,1.30
2023-08-30T15:12:01.696Z,0.90
2023-08-30T15:14:29.978Z,0.70
2023-08-30T15:16:56.891Z,0.90
2023-08-30T15:19:23.953Z,0.80
2023-08-30T15:21:52.107Z,0.95
2023-08-30T15:24:19.102Z,0.90
2023-08-30T15:26:46.120Z,1.00
2023-08-30T15:29:13.047Z,1.00
2023-08-30T15:31:40.017Z,0.80
2023-08-30T15:34:07.008Z,0.80
2023-08-30T15:36:40.552Z,1.10
2023-08-30T15:39:07.589Z,0.90
2023-08-30T15:41:34.509Z,1.00
2023-08-30T15:44:02.141Z,1.17
2023-08-30T15:46:31.564Z,1.40
2023-08-30T15:49:01.142Z,1.20
2023-08-30T15:51:28.048Z,1.40
2023-08-30T15:53:55.015Z,1.40
2023-08-30T15:56:22.296Z,1.40
2023-08-30T15:58:49.539Z,1.60
2023-08-30T16:01:17.381Z,1.67
2023-08-30T16:03:46.043Z,1.67
2023-08-30T16:06:14.162Z,2.42
2023-08-30T16:08:47.181Z,1.83
2023-08-30T16:11:16.586Z,2.30
2023-08-30T16:13:43.663Z,1.60
2023-08-30T16:16:10.729Z,1.88
2023-08-30T16:18:37.779Z,1.90
2023-08-30T16:21:08.770Z,1.85
2023-08-30T16:23:35.704Z,2.03
2023-08-30T16:26:05.452Z,1.92
2023-08-30T16:28:37.464Z,1.92
2023-08-30T16:31:08.449Z,2.13
2023-08-30T16:33:35.770Z,1.73
2023-08-30T16:36:03.794Z,1.70
2023-08-30T16:38:30.933Z,1.90
2023-08-30T16:41:03.539Z,2.53
2023-08-30T16:43:33.038Z,1.70
2023-08-30T16:46:00.014Z,1.65
2023-08-30T16:48:27.674Z,1.77
2023-08-30T16:50:55.101Z,1.40
2023-08-30T16:53:22.117Z,1.50
2023-08-30T16:55:49.033Z,1.35
2023-08-30T16:58:16.011Z,1.38
2023-08-30T17:00:42.947Z,1.10
2023-08-30T17:03:09.864Z,1.00
2023-08-30T17:05:43.104Z,1.30
2023-08-30T17:08:10.337Z,1.08
2023-08-30T17:10:38.194Z,1.20
2023-08-30T17:13:05.490Z,1.50
2023-08-30T17:15:33.890Z,1.60
2023-08-30T17:18:00.886Z,1.48
2023-08-30T17:20:27.946Z,1.80
2023-08-30T17:22:54.820Z,1.90
2023-08-30T17:25:21.744Z,2.35
2023-08-30T17:27:48.715Z,2.88
2023-08-30T17:30:17.376Z,2.20
2023-08-30T17:32:44.411Z,2.30
2023-08-30T17:35:13.914Z,1.73
2023-08-30T17:37:42.446Z,1.77
2023-08-30T17:40:10.605Z,2.45
2023-08-30T17:42:37.493Z,1.60
2023-08-30T17:45:06.074Z,1.92
2023-08-30T17:47:33.251Z,1.48
2023-08-30T17:50:00.443Z,1.45
2023-08-30T17:52:27.494Z,2.72
2023-08-30T17:54:54.535Z,2.00
2023-08-30T17:57:23.361Z,1.92
2023-08-30T17:59:53.128Z,2.83
2023-08-30T18:02:20.081Z,2.03
2023-08-30T18:04:47.089Z,2.35
2023-08-30T18:07:14.275Z,2.35
2023-08-30T18:09:41.416Z,2.38
2023-08-30T18:12:15.188Z,4.75
2023-08-30T18:14:54.313Z,3.13
2023-08-30T18:17:30.657Z,2.67
2023-08-30T18:20:00.685Z,1.98
2023-08-30T18:22:30.625Z,2.08
2023-08-30T18:25:00.050Z,2.40
2023-08-30T18:27:44.445Z,2.20
2023-08-30T18:30:43.540Z,1.80
2023-08-30T18:33:27.917Z,2.30
2023-08-30T18:36:25.716Z,2.05
2023-08-30T18:38:55.775Z,2.22
2023-08-30T18:41:26.245Z,2.30
2023-08-30T18:46:27.544Z,2.72
2023-08-30T18:46:59.408Z,2.17
2023-08-30T18:49:38.364Z,2.70
2023-08-30T18:52:25.834Z,2.40
2023-08-30T18:55:02.133Z,2.42
2023-08-30T18:57:39.098Z,2.45
2023-08-30T19:00:11.856Z,2.50
2023-08-30T19:02:48.225Z,1.90
2023-08-30T19:05:17.727Z,2.25
2023-08-30T19:07:47.381Z,2.45
2023-08-30T19:10:16.981Z,2.95
2023-08-30T19:12:47.900Z,2.17
2023-08-30T19:15:17.171Z,2.70
2023-08-30T19:17:52.553Z,2.75
2023-08-30T19:23:32.202Z,2.63
2023-08-30T19:26:31.297Z,3.75
2023-08-30T19:28:58.366Z,2.80
2023-08-30T19:31:32.539Z,3.38
2023-08-30T19:33:59.821Z,3.40
2023-08-30T19:36:27.993Z,3.80
2023-08-30T19:38:56.765Z,3.80
2023-08-30T19:41:31.885Z,3.85
2023-08-30T19:43:58.840Z,3.75
2023-08-30T19:46:25.983Z,4.18
2023-08-30T19:48:53.001Z,3.78
2023-08-30T19:51:20.683Z,3.90
2023-08-30T19:53:52.256Z,3.67
2023-08-30T19:56:20.321Z,3.83
2023-08-30T19:58:47.459Z,3.83
2023-08-30T20:01:19.512Z,3.78
2023-08-30T20:04:15.090Z,4.18
2023-08-30T20:06:42.048Z,3.85
2023-08-30T20:09:09.268Z,4.90
2023-08-30T20:11:36.355Z,5.18
2023-08-30T20:14:03.663Z,4.85
2023-08-30T20:16:30.555Z,4.68
2023-08-30T20:18:58.278Z,4.25
2023-08-30T20:21:26.192Z,3.85
2023-08-30T20:23:53.308Z,4.28
2023-08-30T20:26:22.092Z,4.35
2023-08-30T20:28:50.598Z,3.58
2023-08-30T20:31:17.656Z,3.85
2023-08-30T20:33:47.856Z,4.03
2023-08-30T20:36:17.507Z,3.72
2023-08-30T20:38:46.341Z,4.85
2023-08-30T20:41:13.450Z,4.28
2023-08-30T20:43:40.434Z,4.63
2023-08-30T20:46:07.651Z,3.42
2023-08-30T20:48:34.545Z,3.80
2023-08-30T20:51:01.761Z,4.20
2023-08-30T20:53:40.594Z,4.50
2023-08-30T20:56:14.260Z,3.72
2023-08-30T20:58:47.441Z,3.55
2023-08-30T21:01:29.304Z,3.70
2023-08-30T21:06:23.166Z,3.78
2023-08-30T21:06:50.476Z,3.97
2023-08-30T21:09:17.584Z,3.67
2023-08-30T21:11:45.228Z,3.17
2023-08-30T21:14:14.232Z,3.67
2023-08-30T21:16:43.734Z,3.40
2023-08-30T21:19:10.647Z,3.10
2023-08-30T21:21:38.058Z,3.33
2023-08-30T21:24:09.582Z,3.47
2023-08-30T21:26:36.737Z,3.10
2023-08-30T21:29:04.530Z,3.60
2023-08-30T21:31:31.488Z,3.25
2023-08-30T21:33:58.739Z,3.78
2023-08-30T21:36:25.669Z,3.40
2023-08-30T21:38:55.837Z,3.88
2023-08-30T21:41:22.938Z,4.07
2023-08-30T21:43:49.835Z,3.60
2023-08-30T21:46:16.824Z,3.10
2023-08-30T21:48:43.690Z,3.40
2023-08-30T21:51:10.626Z,3.58
2023-08-30T21:53:37.454Z,3.70
2023-08-30T21:56:05.371Z,4.25
2023-08-30T21:58:32.936Z,3.90
2023-08-30T22:00:59.863Z,3.30
2023-08-30T22:03:26.901Z,4.32
2023-08-30T22:06:00.639Z,3.58
2023-08-30T22:08:27.754Z,4.78
2023-08-30T22:10:54.920Z,3.67
2023-08-30T22:13:22.464Z,4.13
2023-08-30T22:15:49.405Z,3.58
2023-08-30T22:18:19.002Z,3.80
2023-08-30T22:20:45.962Z,3.53
2023-08-30T22:23:13.097Z,3.47
2023-08-30T22:25:40.320Z,3.60
2023-08-30T22:28:07.203Z,3.17
2023-08-30T22:30:34.273Z,4.05
2023-08-30T22:33:01.258Z,4.15
2023-08-30T22:35:28.209Z,4.28
2023-08-30T22:37:55.082Z,3.78
2023-08-30T22:40:22.971Z,3.60
2023-08-30T22:42:49.960Z,3.33
2023-08-30T22:45:16.864Z,3.42
2023-08-30T22:47:45.558Z,3.40
2023-08-30T22:50:12.743Z,3.53
2023-08-30T22:52:39.756Z,4.18
2023-08-30T22:55:07.051Z,3.67
2023-08-30T22:57:33.968Z,3.92
2023-08-30T23:00:06.541Z,3.00
2023-08-30T23:02:34.735Z,3.30
2023-08-30T23:05:05.050Z,3.35
2023-08-30T23:07:32.121Z,4.35
2023-08-30T23:10:00.209Z,3.35
2023-08-30T23:12:27.326Z,3.78
2023-08-30T23:14:54.258Z,3.38
2023-08-30T23:17:21.125Z,4.47
2023-08-30T23:19:50.112Z,4.72
2023-08-30T23:22:16.976Z,5.15
2023-08-30T23:24:43.927Z,4.00
2023-08-30T23:27:11.355Z,4.82
2023-08-30T23:29:38.288Z,4.57
2023-08-30T23:32:05.463Z,4.13
2023-08-30T23:34:32.551Z,5.07
2023-08-30T23:36:59.896Z,4.95
2023-08-30T23:39:26.767Z,4.47
2023-08-30T23:41:53.752Z,4.40
2023-08-30T23:44:20.585Z,5.47
2023-08-30T23:46:47.509Z,4.88
2023-08-30T23:49:14.408Z,3.80
2023-08-30T23:51:41.366Z,4.40
2023-08-30T23:54:08.279Z,4.28
2023-08-30T23:56:39.019Z,4.65
2023-08-30T23:59:11.401Z,4.70
